sensor_id;sensor_type;location;lat;lon;timestamp;P1;durP1;ratioP1;P2;durP2;ratioP2
3036;SDS011;1528;52.550;13.408;2024-01-27T00:01:22;16.67;;;14.90;;
3036;SDS011;1528;52.550;13.408;2024-01-27T00:04:07;18.10;;;15.37;;
3036;SDS011;1528;52.550;13.408;2024-01-27T00:06:53;17.43;;;15.33;;
3036;SDS011;1528;52.550;13.408;2024-01-27T00:09:38;15.40;;;14.00;;
3036;SDS011;1528;52.550;13.408;2024-01-27T00:12:25;15.60;;;14.13;;
3036;SDS011;1528;52.550;13.408;2024-01-27T00:15:10;22.50;;;16.43;;
3036;SDS011;1528;52.550;13.408;2024-01-27T00:17:57;14.10;;;12.63;;
3036;SDS011;1528;52.550;13.408;2024-01-27T00:20:43;15.40;;;14.10;;
3036;SDS011;1528;52.550;13.408;2024-01-27T00:23:28;14.13;;;12.67;;
3036;SDS011;1528;52.550;13.408;2024-01-27T00:26:14;18.27;;;15.13;;
3036;SDS011;1528;52.550;13.408;2024-01-27T00:29:00;14.67;;;13.17;;
3036;SDS011;1528;52.550;13.408;2024-01-27T00:31:45;17.43;;;16.13;;
3036;SDS011;1528;52.550;13.408;2024-01-27T00:34:34;18.00;;;16.50;;
3036;SDS011;1528;52.550;13.408;2024-01-27T00:37:20;15.83;;;13.70;;
3036;SDS011;1528;52.550;13.408;2024-01-27T00:40:07;15.93;;;14.33;;
3036;SDS011;1528;52.550;13.408;2024-01-27T00:42:53;18.73;;;17.10;;
3036;SDS011;1528;52.550;13.408;2024-01-27T00:45:39;19.53;;;17.67;;
3036;SDS011;1528;52.550;13.408;2024-01-27T00:48:24;15.00;;;13.80;;
3036;SDS011;1528;52.550;13.408;2024-01-27T00:51:11;19.27;;;17.83;;
3036;SDS011;1528;52.550;13.408;2024-01-27T00:53:57;20.93;;;14.80;;
3036;SDS011;1528;52.550;13.408;2024-01-27T00:56:42;16.10;;;14.60;;
3036;SDS011;1528;52.550;13.408;2024-01-27T00:59:28;22.23;;;17.00;;
3036;SDS011;1528;52.550;13.408;2024-01-27T01:02:14;14.67;;;13.30;;
3036;SDS011;1528;52.550;13.408;2024-01-27T01:04:59;17.77;;;15.93;;
3036;SDS011;1528;52.550;13.408;2024-01-27T01:07:48;19.40;;;17.90;;
3036;SDS011;1528;52.550;13.408;2024-01-27T01:10:34;18.43;;;16.80;;
3036;SDS011;1528;52.550;13.408;2024-01-27T01:13:20;24.73;;;17.00;;
3036;SDS011;1528;52.550;13.408;2024-01-27T01:16:06;18.97;;;16.40;;
3036;SDS011;1528;52.550;13.408;2024-01-27T01:18:53;13.67;;;12.37;;
3036;SDS011;1528;52.550;13.408;2024-01-27T01:21:38;17.13;;;15.27;;
3036;SDS011;1528;52.550;13.408;2024-01-27T01:24:25;19.00;;;14.70;;
3036;SDS011;1528;52.550;13.408;2024-01-27T01:27:11;19.80;;;16.40;;
3036;SDS011;1528;52.550;13.408;2024-01-27T01:29:56;14.07;;;12.23;;
3036;SDS011;1528;52.550;13.408;2024-01-27T01:32:42;15.90;;;12.30;;
3036;SDS011;1528;52.550;13.408;2024-01-27T01:35:27;18.93;;;16.70;;
3036;SDS011;1528;52.550;13.408;2024-01-27T01:38:13;16.30;;;12.20;;
3036;SDS011;1528;52.550;13.408;2024-01-27T01:41:00;13.83;;;12.63;;
3036;SDS011;1528;52.550;13.408;2024-01-27T01:43:46;19.17;;;14.73;;
3036;SDS011;1528;52.550;13.408;2024-01-27T01:46:32;16.37;;;14.20;;
3036;SDS011;1528;52.550;13.408;2024-01-27T01:49:18;16.93;;;13.43;;
3036;SDS011;1528;52.550;13.408;2024-01-27T01:52:03;18.77;;;17.17;;
3036;SDS011;1528;52.550;13.408;2024-01-27T01:54:49;18.57;;;13.47;;
3036;SDS011;1528;52.550;13.408;2024-01-27T01:57:37;16.57;;;12.50;;
3036;SDS011;1528;52.550;13.408;2024-01-27T02:00:23;19.60;;;15.60;;
3036;SDS011;1528;52.550;13.408;2024-01-27T02:03:10;18.80;;;17.30;;
3036;SDS011;1528;52.550;13.408;2024-01-27T02:05:56;20.73;;;19.40;;
3036;SDS011;1528;52.550;13.408;2024-01-27T02:08:42;15.20;;;13.20;;
3036;SDS011;1528;52.550;13.408;2024-01-27T02:11:27;14.67;;;13.20;;
3036;SDS011;1528;52.550;13.408;2024-01-27T02:14:15;18.53;;;16.70;;
3036;SDS011;1528;52.550;13.408;2024-01-27T02:17:01;19.73;;;17.77;;
3036;SDS011;1528;52.550;13.408;2024-01-27T02:19:48;18.93;;;17.23;;
3036;SDS011;1528;52.550;13.408;2024-01-27T02:22:33;20.40;;;19.03;;
3036;SDS011;1528;52.550;13.408;2024-01-27T02:25:21;21.00;;;16.30;;
3036;SDS011;1528;52.550;13.408;2024-01-27T02:28:06;20.70;;;19.00;;
3036;SDS011;1528;52.550;13.408;2024-01-27T02:30:52;20.80;;;19.07;;
3036;SDS011;1528;52.550;13.408;2024-01-27T02:33:38;21.27;;;19.20;;
3036;SDS011;1528;52.550;13.408;2024-01-27T02:36:23;19.57;;;18.03;;
3036;SDS011;1528;52.550;13.408;2024-01-27T02:39:09;19.40;;;17.67;;
3036;SDS011;1528;52.550;13.408;2024-01-27T02:41:56;19.23;;;16.63;;
3036;SDS011;1528;52.550;13.408;2024-01-27T02:44:41;18.63;;;17.07;;
3036;SDS011;1528;52.550;13.408;2024-01-27T02:47:27;20.80;;;18.67;;
3036;SDS011;1528;52.550;13.408;2024-01-27T02:50:12;19.97;;;16.77;;
3036;SDS011;1528;52.550;13.408;2024-01-27T02:52:58;17.93;;;16.23;;
3036;SDS011;1528;52.550;13.408;2024-01-27T02:55:43;21.17;;;17.93;;
3036;SDS011;1528;52.550;13.408;2024-01-27T02:58:30;21.30;;;19.60;;
3036;SDS011;1528;52.550;13.408;2024-01-27T03:01:16;20.30;;;18.77;;
3036;SDS011;1528;52.550;13.408;2024-01-27T03:04:01;22.63;;;19.17;;
3036;SDS011;1528;52.550;13.408;2024-01-27T03:06:47;18.10;;;16.63;;
3036;SDS011;1528;52.550;13.408;2024-01-27T03:09:33;20.00;;;18.50;;
3036;SDS011;1528;52.550;13.408;2024-01-27T03:12:18;19.90;;;18.47;;
3036;SDS011;1528;52.550;13.408;2024-01-27T03:15:08;19.00;;;17.53;;
3036;SDS011;1528;52.550;13.408;2024-01-27T03:17:54;20.77;;;17.37;;
3036;SDS011;1528;52.550;13.408;2024-01-27T03:20:39;19.53;;;17.97;;
3036;SDS011;1528;52.550;13.408;2024-01-27T03:23:25;20.33;;;18.70;;
3036;SDS011;1528;52.550;13.408;2024-01-27T03:26:10;17.23;;;15.57;;
3036;SDS011;1528;52.550;13.408;2024-01-27T03:28:57;22.50;;;19.20;;
3036;SDS011;1528;52.550;13.408;2024-01-27T03:31:44;20.53;;;17.30;;
3036;SDS011;1528;52.550;13.408;2024-01-27T03:34:29;18.70;;;15.50;;
3036;SDS011;1528;52.550;13.408;2024-01-27T03:37:15;17.70;;;16.00;;
3036;SDS011;1528;52.550;13.408;2024-01-27T03:40:01;17.57;;;15.80;;
3036;SDS011;1528;52.550;13.408;2024-01-27T03:42:46;16.80;;;15.17;;
3036;SDS011;1528;52.550;13.408;2024-01-27T03:45:32;16.63;;;15.13;;
3036;SDS011;1528;52.550;13.408;2024-01-27T03:48:19;19.93;;;15.60;;
3036;SDS011;1528;52.550;13.408;2024-01-27T03:51:04;18.33;;;16.53;;
3036;SDS011;1528;52.550;13.408;2024-01-27T03:53:50;19.80;;;18.10;;
3036;SDS011;1528;52.550;13.408;2024-01-27T03:56:36;18.10;;;16.33;;
3036;SDS011;1528;52.550;13.408;2024-01-27T03:59:21;17.47;;;15.83;;
3036;SDS011;1528;52.550;13.408;2024-01-27T04:02:07;18.07;;;16.37;;
3036;SDS011;1528;52.550;13.408;2024-01-27T04:04:54;18.30;;;15.43;;
3036;SDS011;1528;52.550;13.408;2024-01-27T04:07:39;16.47;;;14.63;;
3036;SDS011;1528;52.550;13.408;2024-01-27T04:10:25;17.13;;;15.50;;
3036;SDS011;1528;52.550;13.408;2024-01-27T04:13:11;20.50;;;14.70;;
3036;SDS011;1528;52.550;13.408;2024-01-27T04:15:56;16.30;;;13.17;;
3036;SDS011;1528;52.550;13.408;2024-01-27T04:18:44;17.27;;;15.37;;
3036;SDS011;1528;52.550;13.408;2024-01-27T04:21:32;17.47;;;15.67;;
3036;SDS011;1528;52.550;13.408;2024-01-27T04:24:17;20.00;;;15.23;;
3036;SDS011;1528;52.550;13.408;2024-01-27T04:27:03;19.60;;;17.37;;
3036;SDS011;1528;52.550;13.408;2024-01-27T04:29:49;27.50;;;15.90;;
3036;SDS011;1528;52.550;13.408;2024-01-27T04:32:34;16.23;;;15.03;;
3036;SDS011;1528;52.550;13.408;2024-01-27T04:35:20;18.03;;;16.47;;
3036;SDS011;1528;52.550;13.408;2024-01-27T04:38:09;19.73;;;18.13;;
3036;SDS011;1528;52.550;13.408;2024-01-27T04:40:54;21.40;;;16.50;;
3036;SDS011;1528;52.550;13.408;2024-01-27T04:43:40;18.33;;;16.73;;
3036;SDS011;1528;52.550;13.408;2024-01-27T04:46:25;17.00;;;15.57;;
3036;SDS011;1528;52.550;13.408;2024-01-27T04:49:11;18.80;;;16.13;;
3036;SDS011;1528;52.550;13.408;2024-01-27T04:51:56;19.30;;;17.43;;
3036;SDS011;1528;52.550;13.408;2024-01-27T04:54:43;17.17;;;15.67;;
3036;SDS011;1528;52.550;13.408;2024-01-27T04:57:29;17.00;;;15.77;;
3036;SDS011;1528;52.550;13.408;2024-01-27T05:00:15;17.50;;;15.67;;
3036;SDS011;1528;52.550;13.408;2024-01-27T05:03:00;21.50;;;15.73;;
3036;SDS011;1528;52.550;13.408;2024-01-27T05:05:48;16.80;;;15.10;;
3036;SDS011;1528;52.550;13.408;2024-01-27T05:08:34;18.50;;;16.83;;
3036;SDS011;1528;52.550;13.408;2024-01-27T05:11:29;17.57;;;14.47;;
3036;SDS011;1528;52.550;13.408;2024-01-27T05:14:16;19.63;;;15.33;;
3036;SDS011;1528;52.550;13.408;2024-01-27T05:17:01;21.80;;;19.43;;
3036;SDS011;1528;52.550;13.408;2024-01-27T05:19:47;18.77;;;16.97;;
3036;SDS011;1528;52.550;13.408;2024-01-27T05:22:33;18.00;;;16.20;;
3036;SDS011;1528;52.550;13.408;2024-01-27T05:25:19;23.07;;;17.47;;
3036;SDS011;1528;52.550;13.408;2024-01-27T05:28:06;19.97;;;18.00;;
3036;SDS011;1528;52.550;13.408;2024-01-27T05:30:52;19.77;;;17.23;;
3036;SDS011;1528;52.550;13.408;2024-01-27T05:33:37;17.53;;;15.30;;
3036;SDS011;1528;52.550;13.408;2024-01-27T05:36:24;24.93;;;14.90;;
3036;SDS011;1528;52.550;13.408;2024-01-27T05:39:09;21.07;;;17.63;;
3036;SDS011;1528;52.550;13.408;2024-01-27T05:41:55;19.90;;;17.93;;
3036;SDS011;1528;52.550;13.408;2024-01-27T05:44:42;17.90;;;16.30;;
3036;SDS011;1528;52.550;13.408;2024-01-27T05:47:28;17.33;;;15.80;;
3036;SDS011;1528;52.550;13.408;2024-01-27T05:50:14;19.13;;;15.27;;
3036;SDS011;1528;52.550;13.408;2024-01-27T05:53:00;16.77;;;15.10;;
3036;SDS011;1528;52.550;13.408;2024-01-27T05:55:46;19.10;;;16.40;;
3036;SDS011;1528;52.550;13.408;2024-01-27T05:58:31;19.73;;;18.07;;
3036;SDS011;1528;52.550;13.408;2024-01-27T06:01:18;16.53;;;15.10;;
3036;SDS011;1528;52.550;13.408;2024-01-27T06:04:04;22.13;;;20.33;;
3036;SDS011;1528;52.550;13.408;2024-01-27T06:06:50;21.60;;;19.50;;
3036;SDS011;1528;52.550;13.408;2024-01-27T06:09:36;17.53;;;15.87;;
3036;SDS011;1528;52.550;13.408;2024-01-27T06:12:22;18.97;;;17.20;;
3036;SDS011;1528;52.550;13.408;2024-01-27T06:15:08;20.80;;;19.03;;
3036;SDS011;1528;52.550;13.408;2024-01-27T06:17:55;21.50;;;19.67;;
3036;SDS011;1528;52.550;13.408;2024-01-27T06:20:41;19.47;;;17.70;;
3036;SDS011;1528;52.550;13.408;2024-01-27T06:23:27;19.67;;;17.80;;
3036;SDS011;1528;52.550;13.408;2024-01-27T06:26:13;18.70;;;16.93;;
3036;SDS011;1528;52.550;13.408;2024-01-27T06:28:58;17.97;;;16.13;;
3036;SDS011;1528;52.550;13.408;2024-01-27T06:31:46;18.73;;;15.47;;
3036;SDS011;1528;52.550;13.408;2024-01-27T06:34:33;30.03;;;14.73;;
3036;SDS011;1528;52.550;13.408;2024-01-27T06:37:18;20.03;;;18.10;;
3036;SDS011;1528;52.550;13.408;2024-01-27T06:40:04;19.77;;;17.77;;
3036;SDS011;1528;52.550;13.408;2024-01-27T06:42:52;23.03;;;20.70;;
3036;SDS011;1528;52.550;13.408;2024-01-27T06:45:38;19.10;;;17.37;;
3036;SDS011;1528;52.550;13.408;2024-01-27T06:48:24;19.07;;;17.50;;
3036;SDS011;1528;52.550;13.408;2024-01-27T06:51:11;20.47;;;18.47;;
3036;SDS011;1528;52.550;13.408;2024-01-27T06:53:57;20.00;;;17.80;;
3036;SDS011;1528;52.550;13.408;2024-01-27T06:56:42;21.73;;;20.10;;
3036;SDS011;1528;52.550;13.408;2024-01-27T06:59:28;20.37;;;18.53;;
3036;SDS011;1528;52.550;13.408;2024-01-27T07:02:13;21.70;;;19.90;;
3036;SDS011;1528;52.550;13.408;2024-01-27T07:04:59;24.73;;;22.30;;
3036;SDS011;1528;52.550;13.408;2024-01-27T07:07:46;25.37;;;23.57;;
3036;SDS011;1528;52.550;13.408;2024-01-27T07:10:31;22.67;;;20.60;;
3036;SDS011;1528;52.550;13.408;2024-01-27T07:13:17;20.07;;;17.97;;
3036;SDS011;1528;52.550;13.408;2024-01-27T07:16:04;21.50;;;19.37;;
3036;SDS011;1528;52.550;13.408;2024-01-27T07:18:50;20.37;;;18.73;;
3036;SDS011;1528;52.550;13.408;2024-01-27T07:21:35;18.17;;;16.47;;
3036;SDS011;1528;52.550;13.408;2024-01-27T07:24:22;17.67;;;16.13;;
3036;SDS011;1528;52.550;13.408;2024-01-27T07:27:09;20.77;;;18.90;;
3036;SDS011;1528;52.550;13.408;2024-01-27T07:29:56;20.03;;;18.43;;
3036;SDS011;1528;52.550;13.408;2024-01-27T07:32:42;19.87;;;16.33;;
3036;SDS011;1528;52.550;13.408;2024-01-27T07:35:28;17.87;;;16.10;;
3036;SDS011;1528;52.550;13.408;2024-01-27T07:38:15;17.40;;;15.43;;
3036;SDS011;1528;52.550;13.408;2024-01-27T07:41:02;18.27;;;16.53;;
3036;SDS011;1528;52.550;13.408;2024-01-27T07:43:48;17.10;;;15.50;;
3036;SDS011;1528;52.550;13.408;2024-01-27T07:46:34;20.40;;;18.30;;
3036;SDS011;1528;52.550;13.408;2024-01-27T07:49:20;17.63;;;16.00;;
3036;SDS011;1528;52.550;13.408;2024-01-27T07:52:06;19.00;;;17.13;;
3036;SDS011;1528;52.550;13.408;2024-01-27T07:54:51;20.23;;;18.27;;
3036;SDS011;1528;52.550;13.408;2024-01-27T07:57:39;19.80;;;17.97;;
3036;SDS011;1528;52.550;13.408;2024-01-27T08:00:24;19.90;;;18.17;;
3036;SDS011;1528;52.550;13.408;2024-01-27T08:03:10;19.90;;;18.07;;
3036;SDS011;1528;52.550;13.408;2024-01-27T08:05:56;20.67;;;19.03;;
3036;SDS011;1528;52.550;13.408;2024-01-27T08:08:41;22.90;;;20.60;;
3036;SDS011;1528;52.550;13.408;2024-01-27T08:11:28;18.70;;;16.13;;
3036;SDS011;1528;52.550;13.408;2024-01-27T08:14:15;19.90;;;18.40;;
3036;SDS011;1528;52.550;13.408;2024-01-27T08:17:00;22.70;;;19.53;;
3036;SDS011;1528;52.550;13.408;2024-01-27T08:19:47;20.20;;;18.23;;
3036;SDS011;1528;52.550;13.408;2024-01-27T08:22:33;18.97;;;17.00;;
3036;SDS011;1528;52.550;13.408;2024-01-27T08:25:19;23.47;;;21.30;;
3036;SDS011;1528;52.550;13.408;2024-01-27T08:28:05;19.77;;;18.07;;
3036;SDS011;1528;52.550;13.408;2024-01-27T08:30:52;22.60;;;20.60;;
3036;SDS011;1528;52.550;13.408;2024-01-27T08:33:37;21.20;;;19.47;;
3036;SDS011;1528;52.550;13.408;2024-01-27T08:36:23;23.07;;;20.17;;
3036;SDS011;1528;52.550;13.408;2024-01-27T08:39:09;25.37;;;23.30;;
3036;SDS011;1528;52.550;13.408;2024-01-27T08:41:56;20.60;;;18.77;;
3036;SDS011;1528;52.550;13.408;2024-01-27T08:44:41;20.20;;;18.60;;
3036;SDS011;1528;52.550;13.408;2024-01-27T08:47:28;20.20;;;18.37;;
3036;SDS011;1528;52.550;13.408;2024-01-27T08:50:14;19.27;;;17.90;;
3036;SDS011;1528;52.550;13.408;2024-01-27T08:53:00;23.37;;;20.70;;
3036;SDS011;1528;52.550;13.408;2024-01-27T08:55:46;20.00;;;18.40;;
3036;SDS011;1528;52.550;13.408;2024-01-27T08:58:31;20.60;;;19.10;;
3036;SDS011;1528;52.550;13.408;2024-01-27T09:01:17;22.27;;;20.10;;
3036;SDS011;1528;52.550;13.408;2024-01-27T09:04:04;23.40;;;20.80;;
3036;SDS011;1528;52.550;13.408;2024-01-27T09:06:50;23.43;;;21.27;;
3036;SDS011;1528;52.550;13.408;2024-01-27T09:09:35;18.97;;;17.30;;
3036;SDS011;1528;52.550;13.408;2024-01-27T09:12:22;22.50;;;20.53;;
3036;SDS011;1528;52.550;13.408;2024-01-27T09:15:07;21.00;;;19.23;;
3036;SDS011;1528;52.550;13.408;2024-01-27T09:17:53;22.13;;;19.63;;
3036;SDS011;1528;52.550;13.408;2024-01-27T09:20:40;22.73;;;20.50;;
3036;SDS011;1528;52.550;13.408;2024-01-27T09:23:25;22.57;;;19.93;;
3036;SDS011;1528;52.550;13.408;2024-01-27T09:26:11;18.90;;;17.20;;
3036;SDS011;1528;52.550;13.408;2024-01-27T09:28:57;22.73;;;20.47;;
3036;SDS011;1528;52.550;13.408;2024-01-27T09:31:43;24.17;;;22.30;;
3036;SDS011;1528;52.550;13.408;2024-01-27T09:34:29;22.13;;;19.83;;
3036;SDS011;1528;52.550;13.408;2024-01-27T09:37:16;23.10;;;19.30;;
3036;SDS011;1528;52.550;13.408;2024-01-27T09:40:01;22.23;;;20.10;;
3036;SDS011;1528;52.550;13.408;2024-01-27T09:42:50;23.47;;;21.30;;
3036;SDS011;1528;52.550;13.408;2024-01-27T09:45:37;21.63;;;19.53;;
3036;SDS011;1528;52.550;13.408;2024-01-27T09:48:23;23.33;;;21.03;;
3036;SDS011;1528;52.550;13.408;2024-01-27T09:51:09;18.90;;;17.37;;
3036;SDS011;1528;52.550;13.408;2024-01-27T09:53:57;19.20;;;17.33;;
3036;SDS011;1528;52.550;13.408;2024-01-27T09:56:43;19.80;;;17.90;;
3036;SDS011;1528;52.550;13.408;2024-01-27T09:59:30;20.43;;;18.60;;
3036;SDS011;1528;52.550;13.408;2024-01-27T10:02:18;21.00;;;16.93;;
3036;SDS011;1528;52.550;13.408;2024-01-27T10:05:05;19.47;;;17.77;;
3036;SDS011;1528;52.550;13.408;2024-01-27T10:07:53;19.30;;;17.30;;
3036;SDS011;1528;52.550;13.408;2024-01-27T10:10:40;20.23;;;18.10;;
3036;SDS011;1528;52.550;13.408;2024-01-27T10:13:26;20.60;;;18.70;;
3036;SDS011;1528;52.550;13.408;2024-01-27T10:16:11;24.93;;;18.90;;
3036;SDS011;1528;52.550;13.408;2024-01-27T10:19:00;21.00;;;18.90;;
3036;SDS011;1528;52.550;13.408;2024-01-27T10:21:46;20.80;;;19.10;;
3036;SDS011;1528;52.550;13.408;2024-01-27T10:24:32;22.33;;;20.40;;
3036;SDS011;1528;52.550;13.408;2024-01-27T10:27:20;21.57;;;19.97;;
3036;SDS011;1528;52.550;13.408;2024-01-27T10:30:06;19.77;;;17.77;;
3036;SDS011;1528;52.550;13.408;2024-01-27T10:33:00;22.17;;;16.97;;
3036;SDS011;1528;52.550;13.408;2024-01-27T10:35:46;21.67;;;19.73;;
3036;SDS011;1528;52.550;13.408;2024-01-27T10:38:42;20.40;;;18.60;;
3036;SDS011;1528;52.550;13.408;2024-01-27T10:41:27;19.00;;;17.17;;
3036;SDS011;1528;52.550;13.408;2024-01-27T10:44:16;20.37;;;18.33;;
3036;SDS011;1528;52.550;13.408;2024-01-27T10:47:03;20.97;;;19.17;;
3036;SDS011;1528;52.550;13.408;2024-01-27T10:49:50;20.07;;;17.97;;
3036;SDS011;1528;52.550;13.408;2024-01-27T10:52:39;21.73;;;19.97;;
3036;SDS011;1528;52.550;13.408;2024-01-27T10:55:28;17.70;;;16.20;;
3036;SDS011;1528;52.550;13.408;2024-01-27T10:58:14;19.20;;;16.97;;
3036;SDS011;1528;52.550;13.408;2024-01-27T11:01:02;19.70;;;17.87;;
3036;SDS011;1528;52.550;13.408;2024-01-27T11:03:48;21.53;;;19.87;;
3036;SDS011;1528;52.550;13.408;2024-01-27T11:06:36;20.87;;;19.13;;
3036;SDS011;1528;52.550;13.408;2024-01-27T11:09:23;20.87;;;18.90;;
3036;SDS011;1528;52.550;13.408;2024-01-27T11:12:10;18.50;;;16.77;;
3036;SDS011;1528;52.550;13.408;2024-01-27T11:14:57;22.30;;;15.10;;
3036;SDS011;1528;52.550;13.408;2024-01-27T11:17:44;19.63;;;17.03;;
3036;SDS011;1528;52.550;13.408;2024-01-27T11:20:30;20.33;;;18.73;;
3036;SDS011;1528;52.550;13.408;2024-01-27T11:23:16;20.80;;;19.20;;
3036;SDS011;1528;52.550;13.408;2024-01-27T11:26:02;21.03;;;19.17;;
3036;SDS011;1528;52.550;13.408;2024-01-27T11:28:48;23.07;;;21.10;;
3036;SDS011;1528;52.550;13.408;2024-01-27T11:31:34;18.70;;;17.37;;
3036;SDS011;1528;52.550;13.408;2024-01-27T11:34:21;19.77;;;18.00;;
3036;SDS011;1528;52.550;13.408;2024-01-27T11:37:10;19.60;;;17.83;;
3036;SDS011;1528;52.550;13.408;2024-01-27T11:40:03;20.57;;;18.50;;
3036;SDS011;1528;52.550;13.408;2024-01-27T11:42:53;21.47;;;19.50;;
3036;SDS011;1528;52.550;13.408;2024-01-27T11:45:40;19.73;;;18.03;;
3036;SDS011;1528;52.550;13.408;2024-01-27T11:48:26;20.63;;;18.27;;
3036;SDS011;1528;52.550;13.408;2024-01-27T11:51:14;18.43;;;16.90;;
3036;SDS011;1528;52.550;13.408;2024-01-27T11:54:02;19.37;;;17.70;;
3036;SDS011;1528;52.550;13.408;2024-01-27T11:56:47;22.33;;;20.20;;
3036;SDS011;1528;52.550;13.408;2024-01-27T11:59:33;20.17;;;18.37;;
3036;SDS011;1528;52.550;13.408;2024-01-27T12:02:19;22.93;;;19.23;;
3036;SDS011;1528;52.550;13.408;2024-01-27T12:05:05;17.07;;;15.50;;
3036;SDS011;1528;52.550;13.408;2024-01-27T12:07:53;19.17;;;17.43;;
3036;SDS011;1528;52.550;13.408;2024-01-27T12:10:38;20.37;;;18.57;;
3036;SDS011;1528;52.550;13.408;2024-01-27T12:13:24;19.93;;;18.13;;
3036;SDS011;1528;52.550;13.408;2024-01-27T12:16:09;22.27;;;20.60;;
3036;SDS011;1528;52.550;13.408;2024-01-27T12:18:55;19.37;;;17.53;;
3036;SDS011;1528;52.550;13.408;2024-01-27T12:21:46;20.73;;;18.93;;
3036;SDS011;1528;52.550;13.408;2024-01-27T12:24:34;18.03;;;16.53;;
3036;SDS011;1528;52.550;13.408;2024-01-27T12:27:19;23.63;;;20.90;;
3036;SDS011;1528;52.550;13.408;2024-01-27T12:30:06;22.37;;;20.20;;
3036;SDS011;1528;52.550;13.408;2024-01-27T12:32:53;19.53;;;17.93;;
3036;SDS011;1528;52.550;13.408;2024-01-27T12:35:38;23.77;;;21.70;;
3036;SDS011;1528;52.550;13.408;2024-01-27T12:38:23;21.20;;;19.23;;
3036;SDS011;1528;52.550;13.408;2024-01-27T12:41:10;21.93;;;20.03;;
3036;SDS011;1528;52.550;13.408;2024-01-27T12:43:56;23.70;;;21.53;;
3036;SDS011;1528;52.550;13.408;2024-01-27T12:46:41;20.97;;;19.07;;
3036;SDS011;1528;52.550;13.408;2024-01-27T12:49:27;19.83;;;17.80;;
3036;SDS011;1528;52.550;13.408;2024-01-27T12:52:13;20.30;;;18.53;;
3036;SDS011;1528;52.550;13.408;2024-01-27T12:54:59;20.13;;;18.20;;
3036;SDS011;1528;52.550;13.408;2024-01-27T12:57:47;20.13;;;18.63;;
3036;SDS011;1528;52.550;13.408;2024-01-27T13:00:33;21.63;;;19.57;;
3036;SDS011;1528;52.550;13.408;2024-01-27T13:03:19;21.93;;;20.00;;
3036;SDS011;1528;52.550;13.408;2024-01-27T13:06:04;21.43;;;19.57;;
3036;SDS011;1528;52.550;13.408;2024-01-27T13:08:50;23.43;;;21.73;;
3036;SDS011;1528;52.550;13.408;2024-01-27T13:11:36;23.73;;;21.63;;
3036;SDS011;1528;52.550;13.408;2024-01-27T13:14:23;20.40;;;18.80;;
3036;SDS011;1528;52.550;13.408;2024-01-27T13:17:08;18.13;;;16.30;;
3036;SDS011;1528;52.550;13.408;2024-01-27T13:19:54;22.30;;;20.80;;
3036;SDS011;1528;52.550;13.408;2024-01-27T13:22:39;22.70;;;20.80;;
3036;SDS011;1528;52.550;13.408;2024-01-27T13:25:25;21.77;;;19.67;;
3036;SDS011;1528;52.550;13.408;2024-01-27T13:28:10;20.13;;;18.23;;
3036;SDS011;1528;52.550;13.408;2024-01-27T13:30:57;21.83;;;20.27;;
3036;SDS011;1528;52.550;13.408;2024-01-27T13:33:43;20.30;;;18.43;;
3036;SDS011;1528;52.550;13.408;2024-01-27T13:36:29;23.10;;;18.20;;
3036;SDS011;1528;52.550;13.408;2024-01-27T13:39:14;24.40;;;22.33;;
3036;SDS011;1528;52.550;13.408;2024-01-27T13:42:00;23.33;;;21.43;;
3036;SDS011;1528;52.550;13.408;2024-01-27T13:44:45;19.60;;;17.87;;
3036;SDS011;1528;52.550;13.408;2024-01-27T13:47:32;21.00;;;19.17;;
3036;SDS011;1528;52.550;13.408;2024-01-27T13:50:18;22.80;;;20.80;;
3036;SDS011;1528;52.550;13.408;2024-01-27T13:53:04;20.53;;;19.03;;
3036;SDS011;1528;52.550;13.408;2024-01-27T13:55:50;21.43;;;19.63;;
3036;SDS011;1528;52.550;13.408;2024-01-27T13:58:36;20.83;;;18.93;;
3036;SDS011;1528;52.550;13.408;2024-01-27T14:01:22;20.70;;;19.00;;
3036;SDS011;1528;52.550;13.408;2024-01-27T14:04:09;24.27;;;22.27;;
3036;SDS011;1528;52.550;13.408;2024-01-27T14:06:54;20.27;;;18.23;;
3036;SDS011;1528;52.550;13.408;2024-01-27T14:09:40;22.07;;;20.00;;
3036;SDS011;1528;52.550;13.408;2024-01-27T14:12:26;25.20;;;18.23;;
3036;SDS011;1528;52.550;13.408;2024-01-27T14:15:12;22.00;;;19.73;;
3036;SDS011;1528;52.550;13.408;2024-01-27T14:17:58;20.63;;;18.70;;
3036;SDS011;1528;52.550;13.408;2024-01-27T14:20:45;21.10;;;19.07;;
3036;SDS011;1528;52.550;13.408;2024-01-27T14:23:31;18.90;;;17.20;;
3036;SDS011;1528;52.550;13.408;2024-01-27T14:26:17;22.97;;;21.10;;
3036;SDS011;1528;52.550;13.408;2024-01-27T14:29:02;25.27;;;23.07;;
3036;SDS011;1528;52.550;13.408;2024-01-27T14:31:48;21.70;;;19.40;;
3036;SDS011;1528;52.550;13.408;2024-01-27T14:34:33;22.60;;;20.70;;
3036;SDS011;1528;52.550;13.408;2024-01-27T14:37:21;22.47;;;19.97;;
3036;SDS011;1528;52.550;13.408;2024-01-27T14:40:07;21.73;;;19.83;;
3036;SDS011;1528;52.550;13.408;2024-01-27T14:42:54;23.80;;;22.03;;
3036;SDS011;1528;52.550;13.408;2024-01-27T14:45:40;22.00;;;20.30;;
3036;SDS011;1528;52.550;13.408;2024-01-27T14:48:26;22.80;;;18.60;;
3036;SDS011;1528;52.550;13.408;2024-01-27T14:51:11;22.57;;;19.57;;
3036;SDS011;1528;52.550;13.408;2024-01-27T14:53:58;19.63;;;15.27;;
3036;SDS011;1528;52.550;13.408;2024-01-27T14:56:47;21.00;;;19.10;;
3036;SDS011;1528;52.550;13.408;2024-01-27T14:59:33;20.47;;;18.77;;
3036;SDS011;1528;52.550;13.408;2024-01-27T15:02:18;23.53;;;16.70;;
3036;SDS011;1528;52.550;13.408;2024-01-27T15:05:04;17.23;;;15.27;;
3036;SDS011;1528;52.550;13.408;2024-01-27T15:07:52;21.07;;;19.37;;
3036;SDS011;1528;52.550;13.408;2024-01-27T15:10:39;20.83;;;19.23;;
3036;SDS011;1528;52.550;13.408;2024-01-27T15:13:26;19.73;;;17.63;;
3036;SDS011;1528;52.550;13.408;2024-01-27T15:16:12;19.07;;;17.10;;
3036;SDS011;1528;52.550;13.408;2024-01-27T15:18:58;23.10;;;21.00;;
3036;SDS011;1528;52.550;13.408;2024-01-27T15:21:43;23.77;;;21.67;;
3036;SDS011;1528;52.550;13.408;2024-01-27T15:24:29;19.57;;;17.70;;
3036;SDS011;1528;52.550;13.408;2024-01-27T15:27:19;21.13;;;19.70;;
3036;SDS011;1528;52.550;13.408;2024-01-27T15:30:05;18.40;;;16.80;;
3036;SDS011;1528;52.550;13.408;2024-01-27T15:32:52;22.27;;;20.37;;
3036;SDS011;1528;52.550;13.408;2024-01-27T15:35:38;17.60;;;16.00;;
3036;SDS011;1528;52.550;13.408;2024-01-27T15:38:23;18.10;;;16.67;;
3036;SDS011;1528;52.550;13.408;2024-01-27T15:41:09;19.00;;;17.20;;
3036;SDS011;1528;52.550;13.408;2024-01-27T15:43:56;18.70;;;17.10;;
3036;SDS011;1528;52.550;13.408;2024-01-27T15:46:42;20.43;;;17.63;;
3036;SDS011;1528;52.550;13.408;2024-01-27T15:49:27;18.73;;;16.63;;
3036;SDS011;1528;52.550;13.408;2024-01-27T15:52:13;18.17;;;16.87;;
3036;SDS011;1528;52.550;13.408;2024-01-27T15:54:59;20.40;;;18.33;;
3036;SDS011;1528;52.550;13.408;2024-01-27T15:57:44;18.37;;;16.90;;
3036;SDS011;1528;52.550;13.408;2024-01-27T16:00:31;19.27;;;17.83;;
3036;SDS011;1528;52.550;13.408;2024-01-27T16:03:17;17.70;;;16.10;;
3036;SDS011;1528;52.550;13.408;2024-01-27T16:06:03;17.93;;;16.67;;
3036;SDS011;1528;52.550;13.408;2024-01-27T16:08:51;23.17;;;20.87;;
3036;SDS011;1528;52.550;13.408;2024-01-27T16:11:37;37.37;;;34.43;;
3036;SDS011;1528;52.550;13.408;2024-01-27T16:14:22;32.77;;;30.33;;
3036;SDS011;1528;52.550;13.408;2024-01-27T16:17:09;24.70;;;22.80;;
3036;SDS011;1528;52.550;13.408;2024-01-27T16:19:55;22.40;;;20.70;;
3036;SDS011;1528;52.550;13.408;2024-01-27T16:22:40;17.03;;;14.87;;
3036;SDS011;1528;52.550;13.408;2024-01-27T16:25:26;17.33;;;15.90;;